Time,TemperatureF,DewpointF,PressureIn,WindDirection,WindDirectionDegrees,WindSpeedMPH,WindSpeedGustMPH,Humidity,HourlyPrecipIn,Conditions,Clouds,dailyrainin,SoftwareType,DateUTC
2013-04-19 00:02:00,58.0,32.0,29.99,East,84,0.0,1.0,37,0.00,,,0.00,,2013-04-18 21:02:00,
2013-04-19 00:11:00,58.0,33.0,29.98,NW,314,0.0,1.0,38,0.00,,,0.00,,2013-04-18 21:11:00,
2013-04-19 00:21:00,58.0,33.0,29.98,NW,314,0.0,1.0,38,0.00,,,0.00,,2013-04-18 21:21:00,
2013-04-19 00:32:00,58.0,34.0,29.98,West,264,0.0,2.0,40,0.00,,,0.00,,2013-04-18 21:32:00,
2013-04-19 00:43:00,58.0,33.0,29.98,NNE,23,0.0,3.0,39,0.00,,,0.00,,2013-04-18 21:43:00,
2013-04-19 00:52:00,58.0,33.0,29.98,NNE,23,0.0,3.0,39,0.00,,,0.00,,2013-04-18 21:52:00,
2013-04-19 01:02:00,58.0,34.0,29.98,NNE,28,1.0,3.0,40,0.00,,,0.00,,2013-04-18 22:02:00,
2013-04-19 01:12:00,58.0,35.0,29.97,NNW,343,0.0,3.0,42,0.00,,,0.00,,2013-04-18 22:12:00,
2013-04-19 01:22:00,58.0,35.0,29.97,NNW,343,0.0,3.0,42,0.00,,,0.00,,2013-04-18 22:22:00,
2013-04-19 01:32:00,58.0,35.0,29.98,NNW,330,1.0,3.0,42,0.00,,,0.00,,2013-04-18 22:32:00,
2013-04-19 01:42:00,58.0,35.0,29.97,SW,226,1.0,3.0,42,0.00,,,0.00,,2013-04-18 22:42:00,
2013-04-19 01:52:00,58.0,35.0,29.97,SW,226,1.0,3.0,42,0.00,,,0.00,,2013-04-18 22:52:00,
2013-04-19 02:03:00,57.0,35.0,29.97,NE,35,1.0,3.0,43,0.00,,,0.00,,2013-04-18 23:03:00,
2013-04-19 02:11:00,57.0,35.0,29.96,ENE,65,1.0,5.0,43,0.00,,,0.00,,2013-04-18 23:11:00,
2013-04-19 02:21:00,57.0,35.0,29.96,ENE,65,1.0,5.0,43,0.00,,,0.00,,2013-04-18 23:21:00,
2013-04-19 02:32:00,57.0,35.0,29.95,East,88,1.0,4.0,44,0.00,,,0.00,,2013-04-18 23:32:00,
2013-04-19 02:42:00,57.0,36.0,29.95,NNE,16,0.0,3.0,45,0.00,,,0.00,,2013-04-18 23:42:00,
2013-04-19 02:52:00,57.0,36.0,29.95,NNE,16,0.0,3.0,45,0.00,,,0.00,,2013-04-18 23:52:00,
2013-04-19 03:01:00,57.0,36.0,29.94,NNE,29,0.0,3.0,45,0.00,,,0.00,,2013-04-19 00:01:00,
2013-04-19 03:11:00,57.0,36.0,29.94,ENE,63,0.0,2.0,45,0.00,,,0.00,,2013-04-19 00:11:00,
2013-04-19 03:21:00,57.0,36.0,29.94,ENE,63,0.0,2.0,45,0.00,,,0.00,,2013-04-19 00:21:00,
2013-04-19 03:32:00,56.0,35.0,29.93,North,5,1.0,4.0,45,0.00,,,0.00,,2013-04-19 00:32:00,
2013-04-19 03:41:00,56.0,35.0,29.93,NE,49,1.0,3.0,45,0.00,,,0.00,,2013-04-19 00:41:00,
2013-04-19 03:51:00,56.0,35.0,29.93,NE,49,1.0,3.0,45,0.00,,,0.00,,2013-04-19 00:51:00,
2013-04-19 04:01:00,56.0,35.0,29.93,NE,38,1.0,4.0,45,0.00,,,0.00,,2013-04-19 01:01:00,
2013-04-19 04:11:00,56.0,35.0,29.93,NE,38,1.0,4.0,45,0.00,,,0.00,,2013-04-19 01:11:00,
2013-04-19 04:21:00,56.0,36.0,29.93,East,90,0.0,0.0,46,0.00,,,0.00,,2013-04-19 01:21:00,
2013-04-19 04:31:00,56.0,36.0,29.92,ENE,62,0.0,0.0,46,0.00,,,0.00,,2013-04-19 01:31:00,
2013-04-19 04:42:00,56.0,36.0,29.92,North,8,0.0,2.0,46,0.00,,,0.00,,2013-04-19 01:42:00,
2013-04-19 04:52:00,56.0,36.0,29.92,North,8,0.0,2.0,46,0.00,,,0.00,,2013-04-19 01:52:00,
2013-04-19 05:01:00,56.0,36.0,29.92,SSW,200,0.0,1.0,46,0.00,,,0.00,,2013-04-19 02:01:00,
2013-04-19 05:11:00,56.0,36.0,29.92,SSW,200,0.0,1.0,46,0.00,,,0.00,,2013-04-19 02:11:00,
2013-04-19 05:21:00,56.0,36.0,29.91,SE,135,0.0,0.0,47,0.00,,,0.00,,2013-04-19 02:21:00,
2013-04-19 05:32:00,55.0,35.0,29.91,North,353,0.0,2.0,47,0.00,,,0.00,,2013-04-19 02:32:00,
2013-04-19 05:42:00,55.0,36.0,29.91,NE,43,0.0,2.0,48,0.00,,,0.00,,2013-04-19 02:42:00,
2013-04-19 05:51:00,55.0,36.0,29.91,NE,43,0.0,2.0,48,0.00,,,0.00,,2013-04-19 02:51:00,
2013-04-19 06:01:00,55.0,36.0,29.90,ENE,66,0.0,1.0,49,0.00,,,0.00,,2013-04-19 03:01:00,
2013-04-19 06:11:00,55.0,36.0,29.90,ENE,66,0.0,1.0,49,0.00,,,0.00,,2013-04-19 03:11:00,
2013-04-19 06:21:00,55.0,37.0,29.90,NE,45,1.0,2.0,51,0.00,,,0.00,,2013-04-19 03:21:00,
2013-04-19 06:32:00,55.0,37.0,29.91,NE,41,2.0,4.0,51,0.00,,,0.00,,2013-04-19 03:32:00,
2013-04-19 06:42:00,55.0,37.0,29.91,NE,47,1.0,3.0,51,0.00,,,0.00,,2013-04-19 03:42:00,
2013-04-19 06:53:00,55.0,37.0,29.91,NE,47,1.0,3.0,51,0.00,,,0.00,,2013-04-19 03:53:00,
2013-04-19 07:03:00,55.0,38.0,29.91,NE,46,1.0,3.0,52,0.00,,,0.00,,2013-04-19 04:03:00,
2013-04-19 07:12:00,55.0,39.0,29.91,NNE,23,1.0,3.0,54,0.00,,,0.00,,2013-04-19 04:12:00,
2013-04-19 07:23:00,55.0,39.0,29.91,NNE,23,1.0,3.0,54,0.00,,,0.00,,2013-04-19 04:23:00,
2013-04-19 07:32:00,55.0,39.0,29.92,NE,53,0.0,1.0,55,0.00,,,0.00,,2013-04-19 04:32:00,
2013-04-19 07:43:00,55.0,40.0,29.92,NE,46,0.0,4.0,56,0.00,,,0.00,,2013-04-19 04:43:00,
2013-04-19 07:52:00,55.0,40.0,29.92,NE,46,0.0,4.0,56,0.00,,,0.00,,2013-04-19 04:52:00,
2013-04-19 08:02:00,56.0,41.0,29.92,NE,42,3.0,4.0,56,0.00,,,0.00,,2013-04-19 05:02:00,
2013-04-19 08:11:00,56.0,41.0,29.92,NE,42,3.0,4.0,56,0.00,,,0.00,,2013-04-19 05:11:00,
2013-04-19 08:22:00,57.0,41.0,29.91,NE,34,3.0,5.0,55,0.00,,,0.00,,2013-04-19 05:22:00,
2013-04-19 08:32:00,60.0,39.0,29.92,NNE,27,2.0,4.0,46,0.00,,,0.00,,2013-04-19 05:32:00,
2013-04-19 08:42:00,60.0,39.0,29.92,NNE,27,2.0,4.0,46,0.00,,,0.00,,2013-04-19 05:42:00,
2013-04-19 08:51:00,62.0,40.0,29.91,NE,35,2.0,5.0,44,0.00,,,0.00,,2013-04-19 05:51:00,
2013-04-19 09:01:00,62.0,40.0,29.91,NE,44,2.0,6.0,44,0.00,,,0.00,,2013-04-19 06:01:00,
2013-04-19 09:11:00,60.0,39.0,29.91,NNE,23,4.0,6.0,46,0.00,,,0.00,,2013-04-19 06:11:00,
2013-04-19 09:22:00,60.0,39.0,29.91,NNE,23,4.0,6.0,46,0.00,,,0.00,,2013-04-19 06:22:00,
2013-04-19 09:31:00,62.0,41.0,29.91,WSW,245,1.0,4.0,46,0.00,,,0.00,,2013-04-19 06:31:00,
2013-04-19 09:42:00,62.0,41.0,29.91,WSW,245,1.0,4.0,46,0.00,,,0.00,,2013-04-19 06:42:00,
2013-04-19 09:52:00,62.0,40.0,29.92,NNW,337,5.0,12.0,45,0.00,,,0.00,,2013-04-19 06:52:00,
2013-04-19 10:01:00,65.0,40.0,29.92,North,355,3.0,6.0,40,0.00,,,0.00,,2013-04-19 07:01:00,
2013-04-19 10:11:00,66.0,40.0,29.92,North,8,3.0,6.0,38,0.00,,,0.00,,2013-04-19 07:11:00,
2013-04-19 10:21:00,66.0,40.0,29.92,North,8,3.0,6.0,38,0.00,,,0.00,,2013-04-19 07:21:00,
2013-04-19 10:31:00,64.0,39.0,29.92,North,9,6.0,9.0,39,0.00,,,0.00,,2013-04-19 07:31:00,
2013-04-19 10:41:00,64.0,39.0,29.92,North,9,6.0,9.0,39,0.00,,,0.00,,2013-04-19 07:41:00,
2013-04-19 10:52:00,66.0,40.0,29.92,NNW,341,5.0,15.0,39,0.00,,,0.00,,2013-04-19 07:52:00,
2013-04-19 11:02:00,64.0,37.0,29.92,NE,38,6.0,12.0,37,0.00,,,0.00,,2013-04-19 08:02:00,
2013-04-19 11:12:00,65.0,38.0,29.91,NE,36,5.0,8.0,37,0.00,,,0.00,,2013-04-19 08:12:00,
2013-04-19 11:21:00,65.0,38.0,29.91,NE,36,5.0,8.0,37,0.00,,,0.00,,2013-04-19 08:21:00,
2013-04-19 11:32:00,64.0,38.0,29.92,NNW,346,4.0,9.0,38,0.00,,,0.00,,2013-04-19 08:32:00,
2013-04-19 11:41:00,62.0,38.0,29.91,NE,35,6.0,9.0,41,0.00,,,0.00,,2013-04-19 08:41:00,
2013-04-19 11:51:00,62.0,38.0,29.91,NE,35,6.0,9.0,41,0.00,,,0.00,,2013-04-19 08:51:00,
2013-04-19 12:01:00,63.0,39.0,29.91,North,349,6.0,12.0,41,0.00,,,0.00,,2013-04-19 09:01:00,
2013-04-19 12:11:00,62.0,42.0,29.92,North,6,7.0,15.0,47,0.00,,,0.00,,2013-04-19 09:11:00,
2013-04-19 12:21:00,62.0,42.0,29.92,North,6,7.0,15.0,47,0.00,,,0.00,,2013-04-19 09:21:00,
2013-04-19 12:32:00,58.0,47.0,29.92,NE,43,6.0,12.0,67,0.00,,,0.00,,2013-04-19 09:32:00,
2013-04-19 12:42:00,58.0,47.0,29.92,NE,43,6.0,12.0,67,0.00,,,0.00,,2013-04-19 09:42:00,
2013-04-19 12:52:00,60.0,47.0,29.92,NE,47,2.0,5.0,63,0.00,,,0.00,,2013-04-19 09:52:00,
2013-04-19 13:02:00,63.0,45.0,29.92,NNE,28,4.0,15.0,52,0.00,,,0.00,,2013-04-19 10:02:00,
2013-04-19 13:13:00,59.0,47.0,29.93,ESE,117,5.0,10.0,64,0.00,,,0.00,,2013-04-19 10:13:00,
2013-04-19 13:23:00,59.0,47.0,29.93,ESE,117,5.0,10.0,64,0.00,,,0.00,,2013-04-19 10:23:00,
2013-04-19 13:33:00,58.0,47.0,29.93,NE,39,2.0,6.0,68,0.00,,,0.00,,2013-04-19 10:33:00,
2013-04-19 13:42:00,59.0,48.0,29.92,NE,52,4.0,6.0,66,0.00,,,0.00,,2013-04-19 10:42:00,
2013-04-19 13:52:00,59.0,48.0,29.92,NE,52,4.0,6.0,66,0.00,,,0.00,,2013-04-19 10:52:00,
2013-04-19 14:02:00,62.0,47.0,29.91,NE,53,4.0,6.0,58,0.00,,,0.00,,2013-04-19 11:02:00,
2013-04-19 14:11:00,62.0,47.0,29.91,NE,53,4.0,6.0,58,0.00,,,0.00,,2013-04-19 11:11:00,
2013-04-19 14:21:00,63.0,45.0,29.91,NE,41,5.0,9.0,52,0.00,,,0.00,,2013-04-19 11:21:00,
2013-04-19 14:32:00,63.0,45.0,29.91,North,8,5.0,8.0,52,0.00,,,0.00,,2013-04-19 11:32:00,
2013-04-19 14:42:00,63.0,45.0,29.91,North,8,5.0,8.0,52,0.00,,,0.00,,2013-04-19 11:42:00,
2013-04-19 14:52:00,63.0,45.0,29.91,NNE,26,4.0,6.0,52,0.00,,,0.00,,2013-04-19 11:52:00,
2013-04-19 15:02:00,64.0,43.0,29.91,East,81,4.0,11.0,46,0.00,,,0.00,,2013-04-19 12:02:00,
2013-04-19 15:12:00,64.0,42.0,29.91,NNW,333,3.0,11.0,45,0.00,,,0.00,,2013-04-19 12:12:00,
2013-04-19 15:22:00,64.0,42.0,29.91,NNW,333,3.0,11.0,45,0.00,,,0.00,,2013-04-19 12:22:00,
2013-04-19 15:32:00,67.0,39.0,29.90,NNE,17,5.0,9.0,36,0.00,,,0.00,,2013-04-19 12:32:00,
2013-04-19 15:42:00,67.0,39.0,29.90,NNE,17,5.0,9.0,36,0.00,,,0.00,,2013-04-19 12:42:00,
2013-04-19 15:52:00,67.0,38.0,29.90,NE,42,6.0,10.0,34,0.00,,,0.00,,2013-04-19 12:52:00,
2013-04-19 16:01:00,67.0,38.0,29.90,NE,42,6.0,10.0,34,0.00,,,0.00,,2013-04-19 13:01:00,
2013-04-19 16:11:00,69.0,38.0,29.89,WNW,298,5.0,20.0,32,0.00,,,0.00,,2013-04-19 13:11:00,
2013-04-19 16:21:00,69.0,38.0,29.89,WNW,298,5.0,20.0,32,0.00,,,0.00,,2013-04-19 13:21:00,
2013-04-19 16:32:00,67.0,38.0,29.88,North,358,7.0,16.0,34,0.00,,,0.00,,2013-04-19 13:32:00,
2013-04-19 16:42:00,67.0,38.0,29.88,North,358,7.0,16.0,34,0.00,,,0.00,,2013-04-19 13:42:00,
2013-04-19 16:52:00,68.0,38.0,29.88,WSW,252,4.0,11.0,33,0.00,,,0.00,,2013-04-19 13:52:00,
2013-04-19 17:01:00,69.0,39.0,29.89,NNE,26,5.0,9.0,33,0.00,,,0.00,,2013-04-19 14:01:00,
2013-04-19 17:11:00,70.0,38.0,29.89,ENE,69,6.0,13.0,31,0.00,,,0.00,,2013-04-19 14:11:00,
2013-04-19 17:21:00,70.0,38.0,29.89,ENE,69,6.0,13.0,31,0.00,,,0.00,,2013-04-19 14:21:00,
2013-04-19 17:32:00,70.0,36.0,29.89,NNW,346,5.0,7.0,29,0.00,,,0.00,,2013-04-19 14:32:00,
2013-04-19 17:42:00,70.0,36.0,29.89,NNW,346,5.0,7.0,29,0.00,,,0.00,,2013-04-19 14:42:00,
2013-04-19 17:52:00,70.0,39.0,29.90,NE,37,5.0,9.0,32,0.00,,,0.00,,2013-04-19 14:52:00,
2013-04-19 18:01:00,70.0,36.0,29.90,North,353,5.0,9.0,29,0.00,,,0.00,,2013-04-19 15:01:00,
2013-04-19 18:11:00,67.0,37.0,29.90,ENE,60,7.0,13.0,33,0.00,,,0.00,,2013-04-19 15:11:00,
2013-04-19 18:21:00,67.0,37.0,29.90,ENE,60,7.0,13.0,33,0.00,,,0.00,,2013-04-19 15:21:00,
2013-04-19 18:33:00,67.0,38.0,29.90,NE,43,7.0,12.0,34,0.00,,,0.00,,2013-04-19 15:33:00,
2013-04-19 18:42:00,67.0,38.0,29.90,NE,43,7.0,12.0,34,0.00,,,0.00,,2013-04-19 15:42:00,
2013-04-19 18:52:00,69.0,37.0,29.90,North,3,5.0,10.0,31,0.00,,,0.00,,2013-04-19 15:52:00,
2013-04-19 19:03:00,68.0,38.0,29.91,NNE,26,4.0,11.0,33,0.00,,,0.00,,2013-04-19 16:03:00,
2013-04-19 19:12:00,67.0,38.0,29.91,NE,52,4.0,10.0,34,0.00,,,0.00,,2013-04-19 16:12:00,
2013-04-19 19:22:00,67.0,38.0,29.91,NE,52,4.0,10.0,34,0.00,,,0.00,,2013-04-19 16:22:00,
2013-04-19 19:32:00,63.0,35.0,29.91,North,8,6.0,10.0,35,0.00,,,0.00,,2013-04-19 16:32:00,
2013-04-19 19:42:00,62.0,37.0,29.91,NNE,20,5.0,7.0,40,0.00,,,0.00,,2013-04-19 16:42:00,
2013-04-19 19:52:00,62.0,37.0,29.91,NNE,20,5.0,7.0,40,0.00,,,0.00,,2013-04-19 16:52:00,
2013-04-19 20:02:00,61.0,37.0,29.92,NNE,21,5.0,9.0,41,0.00,,,0.00,,2013-04-19 17:02:00,
2013-04-19 20:11:00,61.0,37.0,29.92,NNE,21,5.0,9.0,41,0.00,,,0.00,,2013-04-19 17:11:00,
2013-04-19 20:21:00,61.0,38.0,29.92,North,358,4.0,9.0,42,0.00,,,0.00,,2013-04-19 17:21:00,
2013-04-19 20:32:00,61.0,38.0,29.93,NE,36,2.0,6.0,43,0.00,,,0.00,,2013-04-19 17:32:00,
2013-04-19 20:42:00,61.0,38.0,29.93,NE,36,2.0,6.0,43,0.00,,,0.00,,2013-04-19 17:42:00,
2013-04-19 20:52:00,60.0,38.0,29.93,North,350,2.0,4.0,44,0.00,,,0.00,,2013-04-19 17:52:00,
2013-04-19 21:01:00,60.0,39.0,29.93,NNE,20,3.0,6.0,45,0.00,,,0.00,,2013-04-19 18:01:00,
2013-04-19 21:13:00,60.0,39.0,29.93,NNE,20,3.0,6.0,45,0.00,,,0.00,,2013-04-19 18:13:00,
2013-04-19 21:22:00,60.0,39.0,29.93,NNE,22,2.0,4.0,46,0.00,,,0.00,,2013-04-19 18:22:00,
2013-04-19 21:33:00,59.0,39.0,29.93,NNE,25,2.0,4.0,47,0.00,,,0.00,,2013-04-19 18:33:00,
2013-04-19 21:42:00,59.0,39.0,29.93,NNE,25,2.0,4.0,47,0.00,,,0.00,,2013-04-19 18:42:00,
2013-04-19 21:52:00,59.0,39.0,29.94,NNE,30,1.0,5.0,47,0.00,,,0.00,,2013-04-19 18:52:00,
2013-04-19 22:01:00,59.0,39.0,29.94,NE,51,1.0,3.0,47,0.00,,,0.00,,2013-04-19 19:01:00,
2013-04-19 22:11:00,59.0,39.0,29.94,NNW,345,1.0,3.0,48,0.00,,,0.00,,2013-04-19 19:11:00,
2013-04-19 22:21:00,59.0,39.0,29.94,NNW,345,1.0,3.0,48,0.00,,,0.00,,2013-04-19 19:21:00,
2013-04-19 22:31:00,59.0,39.0,29.94,East,93,0.0,3.0,48,0.00,,,0.00,,2013-04-19 19:31:00,
2013-04-19 22:41:00,59.0,39.0,29.94,East,93,0.0,3.0,48,0.00,,,0.00,,2013-04-19 19:41:00,
2013-04-19 22:52:00,58.0,38.0,29.94,NNE,29,3.0,6.0,47,0.00,,,0.00,,2013-04-19 19:52:00,
2013-04-19 23:01:00,58.0,38.0,29.94,North,7,0.0,2.0,47,0.00,,,0.00,,2013-04-19 20:01:00,
2013-04-19 23:11:00,58.0,38.0,29.94,ENE,60,0.0,1.0,48,0.00,,,0.00,,2013-04-19 20:11:00,
2013-04-19 23:21:00,58.0,38.0,29.94,ENE,60,0.0,1.0,48,0.00,,,0.00,,2013-04-19 20:21:00,
2013-04-19 23:31:00,58.0,38.0,29.94,NNW,328,0.0,3.0,48,0.00,,,0.00,,2013-04-19 20:31:00,
2013-04-19 23:41:00,57.0,38.0,29.93,North,6,0.0,2.0,49,0.00,,,0.00,,2013-04-19 20:41:00,
2013-04-19 23:51:00,57.0,38.0,29.93,North,6,0.0,2.0,49,0.00,,,0.00,,2013-04-19 20:51:00,